Time;durP1;ratioP1;P1;durP2;ratioP2;P2;SDS_P1;SDS_P2;PMS_P1;PMS_P2;Temp;Humidity;BMP_temperature;BMP_pressure;BME280_temperature;BME280_humidity;BME280_pressure;Samples;Min_cycle;Max_cycle;Signal;HPM_P1;HPM_P2
2021/06/22 00:00:37;;;;;;;14.90;3.60;;;22.90;94.90;;;;;;5096893;28;20077;-87
2021/06/22 00:03:03;;;;;;;13.30;3.35;;;22.90;94.80;;;;;;5095416;28;20028;-89
2021/06/22 00:05:31;;;;;;;10.00;3.15;;;22.90;94.70;;;;;;5096931;28;20032;-89
2021/06/22 00:07:57;;;;;;;12.05;2.78;;;22.90;94.60;;;;;;5095630;28;20024;-89
2021/06/22 00:10:25;;;;;;;10.27;2.67;;;22.90;94.50;;;;;;5096292;28;20126;-88
2021/06/22 00:12:51;;;;;;;12.82;3.08;;;22.80;94.30;;;;;;5104358;28;20024;-89
2021/06/22 00:15:19;;;;;;;8.52;2.40;;;22.80;94.30;;;;;;5119174;28;20079;-89
2021/06/22 00:17:46;;;;;;;7.60;2.60;;;22.70;94.10;;;;;;5120186;28;20079;-89
2021/06/22 00:20:13;;;;;;;9.75;2.78;;;22.70;94.00;;;;;;5115622;28;20057;-88
2021/06/22 00:22:41;;;;;;;13.90;2.65;;;22.70;93.90;;;;;;5099276;28;20456;-88
2021/06/22 00:25:08;;;;;;;13.77;2.90;;;22.70;93.90;;;;;;5095156;28;20020;-89
2021/06/22 00:27:34;;;;;;;10.70;2.80;;;22.70;93.70;;;;;;5095072;28;20032;-88
2021/06/22 00:30:00;;;;;;;16.95;3.30;;;22.60;93.50;;;;;;5094927;28;20070;-89
2021/06/22 00:32:26;;;;;;;10.15;2.60;;;22.60;93.50;;;;;;5098972;28;20028;-89
2021/06/22 00:34:52;;;;;;;9.68;2.67;;;22.60;93.40;;;;;;5100122;28;20020;-89
2021/06/22 00:37:18;;;;;;;7.97;3.40;;;22.50;93.30;;;;;;5095096;28;20031;-89
2021/06/22 00:39:45;;;;;;;6.35;2.47;;;22.50;93.30;;;;;;5094898;28;20024;-88
2021/06/22 00:42:12;;;;;;;12.15;2.78;;;22.50;93.20;;;;;;5094955;28;20515;-89
2021/06/22 00:44:48;;;;;;;10.07;2.55;;;22.50;93.10;;;;;;5094870;28;20051;-89
2021/06/22 00:47:16;;;;;;;12.40;2.88;;;22.50;93.00;;;;;;5095300;28;20485;-88
2021/06/22 00:49:42;;;;;;;10.65;2.72;;;22.50;93.00;;;;;;5094714;28;20024;-88
2021/06/22 00:52:07;;;;;;;10.23;2.45;;;22.50;92.90;;;;;;5094896;28;20085;-89
2021/06/22 00:54:36;;;;;;;11.80;2.88;;;22.50;92.80;;;;;;5096937;28;20036;-88
2021/06/22 00:57:08;;;;;;;10.57;2.67;;;22.50;92.70;;;;;;5098932;28;20092;-88
2021/06/22 00:59:35;;;;;;;12.27;2.92;;;22.50;92.60;;;;;;5095395;28;20510;-89
2021/06/22 01:02:05;;;;;;;6.88;2.72;;;22.50;92.40;;;;;;5096904;28;20493;-89
2021/06/22 01:04:32;;;;;;;11.25;2.58;;;22.50;92.10;;;;;;5095576;28;20485;-89
2021/06/22 01:07:00;;;;;;;7.50;2.58;;;22.50;91.90;;;;;;5094208;28;20020;-88
2021/06/22 01:09:30;;;;;;;7.72;3.22;;;22.50;91.60;;;;;;5094059;28;20028;-89
2021/06/22 01:12:00;;;;;;;9.30;2.90;;;22.50;91.40;;;;;;5094574;28;20481;-89
2021/06/22 01:14:30;;;;;;;7.57;2.90;;;22.40;91.20;;;;;;5095695;28;20039;-88
2021/06/22 01:16:56;;;;;;;9.68;2.92;;;22.40;91.10;;;;;;5094082;28;20028;-86
2021/06/22 01:19:24;;;;;;;11.65;2.90;;;22.40;90.90;;;;;;5094255;28;20032;-88
2021/06/22 01:21:50;;;;;;;8.00;3.10;;;22.40;90.80;;;;;;5094126;28;20040;-88
2021/06/22 01:24:21;;;;;;;7.30;2.63;;;22.40;90.70;;;;;;5094593;28;20358;-89
2021/06/22 01:26:50;;;;;;;10.32;2.63;;;22.30;90.60;;;;;;5103103;28;20074;-89
2021/06/22 01:29:16;;;;;;;9.60;2.90;;;22.30;90.60;;;;;;5095658;28;20026;-88
2021/06/22 01:31:42;;;;;;;8.88;2.97;;;22.30;90.60;;;;;;5096339;28;20024;-89
2021/06/22 01:34:09;;;;;;;11.05;3.05;;;22.30;90.60;;;;;;5094430;28;20057;-89
2021/06/22 01:36:37;;;;;;;5.93;2.70;;;22.30;90.50;;;;;;5109207;28;20012;-87
2021/06/22 01:39:04;;;;;;;12.05;3.05;;;22.30;90.50;;;;;;5107346;28;20032;-86
2021/06/22 01:41:30;;;;;;;5.68;2.63;;;22.30;90.50;;;;;;5109048;28;20111;-87
2021/06/22 01:43:57;;;;;;;9.40;3.97;;;22.30;90.60;;;;;;5097254;28;20428;-88
2021/06/22 01:46:22;;;;;;;12.13;3.67;;;22.30;90.70;;;;;;5094655;28;20035;-88
2021/06/22 01:48:48;;;;;;;11.38;3.40;;;22.30;90.50;;;;;;5102356;28;20032;-86
2021/06/22 01:51:14;;;;;;;8.93;3.25;;;22.40;90.20;;;;;;5096219;28;20036;-88
2021/06/22 01:53:39;;;;;;;6.97;2.88;;;22.40;89.50;;;;;;5095269;28;20385;-86
2021/06/22 01:56:06;;;;;;;17.65;3.75;;;22.40;88.40;;;;;;5098390;28;20020;-88
2021/06/22 01:58:32;;;;;;;6.70;3.55;;;22.60;87.00;;;;;;5097733;28;20131;-87
2021/06/22 02:00:59;;;;;;;11.98;3.80;;;22.60;86.10;;;;;;5109572;28;20024;-88
2021/06/22 02:03:27;;;;;;;8.68;3.13;;;22.60;85.50;;;;;;5111035;28;20104;-88
2021/06/22 02:05:53;;;;;;;10.70;3.10;;;22.70;84.90;;;;;;5105019;28;20035;-89
2021/06/22 02:08:20;;;;;;;14.80;3.17;;;22.70;84.20;;;;;;5112819;28;20038;-90
2021/06/22 02:10:46;;;;;;;12.70;2.78;;;22.80;83.60;;;;;;5097315;28;20081;-88
2021/06/22 02:13:13;;;;;;;8.02;2.47;;;22.80;83.60;;;;;;5099331;28;20039;-87
2021/06/22 02:15:40;;;;;;;8.70;2.88;;;22.80;83.50;;;;;;5096023;28;20028;-89
2021/06/22 02:18:07;;;;;;;11.13;2.65;;;22.80;83.00;;;;;;5099068;28;20071;-87
2021/06/22 02:20:34;;;;;;;5.72;2.47;;;22.80;82.50;;;;;;5107659;28;20008;-86
2021/06/22 02:22:59;;;;;;;8.02;2.38;;;22.80;82.00;;;;;;5113005;28;20040;-87
2021/06/22 02:25:25;;;;;;;12.88;2.97;;;22.90;81.50;;;;;;5104652;28;20031;-88
2021/06/22 02:28:01;;;;;;;9.50;2.88;;;22.90;81.00;;;;;;5097102;28;20028;-87
2021/06/22 02:30:27;;;;;;;6.97;2.85;;;22.90;80.90;;;;;;5099241;28;20047;-88
2021/06/22 02:32:53;;;;;;;10.45;2.63;;;22.90;80.00;;;;;;5097521;28;20050;-88
2021/06/22 02:35:18;;;;;;;7.40;2.50;;;22.90;79.80;;;;;;5097328;28;20473;-87
2021/06/22 02:37:44;;;;;;;8.25;2.75;;;23.00;79.50;;;;;;5097293;28;20024;-88
2021/06/22 02:40:11;;;;;;;8.93;2.80;;;23.00;79.20;;;;;;5097589;28;20107;-88
2021/06/22 02:42:38;;;;;;;7.85;2.20;;;23.00;78.90;;;;;;5097509;28;20397;-88
2021/06/22 02:45:04;;;;;;;9.43;2.80;;;23.00;78.50;;;;;;5099880;28;20031;-87
2021/06/22 02:47:30;;;;;;;6.88;2.50;;;23.00;78.30;;;;;;5105146;28;20035;-90
2021/06/22 02:49:56;;;;;;;5.55;2.40;;;23.00;78.20;;;;;;5103999;28;20024;-87
2021/06/22 02:52:21;;;;;;;7.63;3.00;;;23.10;78.10;;;;;;5106603;28;20039;-88
2021/06/22 02:54:47;;;;;;;7.53;3.05;;;23.10;77.90;;;;;;5099639;28;20035;-87
2021/06/22 02:57:13;;;;;;;9.90;2.97;;;23.10;77.70;;;;;;5104452;28;20084;-89
2021/06/22 02:59:39;;;;;;;4.30;2.88;;;23.10;77.50;;;;;;5102277;28;20055;-89
2021/06/22 03:02:06;;;;;;;11.00;3.00;;;23.20;77.30;;;;;;5113911;28;20063;-88
2021/06/22 03:04:33;;;;;;;10.27;3.30;;;23.10;77.10;;;;;;5119939;28;20461;-87
2021/06/22 03:06:59;;;;;;;7.28;2.88;;;23.20;76.80;;;;;;5119716;28;20024;-88
2021/06/22 03:09:25;;;;;;;8.60;2.78;;;23.20;76.50;;;;;;5112988;28;20445;-87
2021/06/22 03:11:51;;;;;;;7.60;2.85;;;23.20;76.60;;;;;;5100304;28;20024;-88
2021/06/22 03:14:19;;;;;;;6.13;2.45;;;23.30;76.40;;;;;;5099488;28;20396;-87
2021/06/22 03:16:45;;;;;;;10.20;3.20;;;23.30;76.20;;;;;;5096773;28;20464;-87
2021/06/22 03:19:11;;;;;;;12.63;4.28;;;23.30;76.00;;;;;;5096477;28;20169;-88
2021/06/22 03:21:37;;;;;;;9.68;3.78;;;23.40;76.10;;;;;;5097862;28;20032;-87
2021/06/22 03:24:03;;;;;;;6.38;3.03;;;23.40;76.20;;;;;;5098194;28;20035;-89
2021/06/22 03:26:29;;;;;;;5.40;2.70;;;23.40;76.10;;;;;;5096443;28;20131;-88
2021/06/22 03:28:55;;;;;;;6.60;2.58;;;23.50;76.10;;;;;;5097565;28;20032;-87
2021/06/22 03:31:20;;;;;;;13.48;2.70;;;23.50;76.10;;;;;;5097682;28;20073;-87
2021/06/22 03:33:46;;;;;;;9.50;2.08;;;23.50;76.00;;;;;;5096282;28;20039;-88
2021/06/22 03:36:12;;;;;;;5.35;2.47;;;23.50;76.00;;;;;;5097038;28;20053;-88
2021/06/22 03:38:38;;;;;;;5.63;2.30;;;23.60;76.00;;;;;;5100972;28;20043;-86
2021/06/22 03:41:03;;;;;;;8.07;2.50;;;23.60;76.10;;;;;;5100754;28;20104;-88
2021/06/22 03:43:29;;;;;;;6.05;2.30;;;23.60;76.10;;;;;;5098508;28;20047;-87
2021/06/22 03:45:55;;;;;;;6.68;2.00;;;23.70;76.00;;;;;;5095976;28;20154;-87
2021/06/22 03:48:21;;;;;;;5.88;2.08;;;23.70;76.00;;;;;;5096123;28;20477;-87
2021/06/22 03:50:47;;;;;;;6.97;2.50;;;23.70;76.00;;;;;;5095819;28;20038;-87
2021/06/22 03:53:12;;;;;;;7.97;2.40;;;23.80;76.00;;;;;;5097898;28;20032;-89
2021/06/22 03:55:38;;;;;;;8.32;2.42;;;23.90;76.00;;;;;;5096634;28;20024;-87
2021/06/22 03:58:05;;;;;;;6.55;2.10;;;24.00;76.00;;;;;;5097364;28;20044;-87
2021/06/22 04:00:32;;;;;;;10.98;3.20;;;24.10;75.70;;;;;;5096397;28;20032;-87
2021/06/22 04:02:59;;;;;;;6.30;2.47;;;24.20;75.00;;;;;;5097198;28;20139;-87
2021/06/22 04:05:27;;;;;;;6.95;2.65;;;24.20;74.80;;;;;;5097191;28;20020;-88
2021/06/22 04:07:53;;;;;;;12.27;3.47;;;24.20;75.00;;;;;;5106329;28;20047;-88
2021/06/22 04:10:19;;;;;;;11.32;3.22;;;24.20;74.50;;;;;;5112310;28;20028;-87
2021/06/22 04:12:45;;;;;;;4.57;2.80;;;24.20;74.80;;;;;;5112306;28;20032;-87
2021/06/22 04:15:11;;;;;;;11.13;2.88;;;24.40;74.80;;;;;;5096193;28;20020;-89
2021/06/22 04:17:37;;;;;;;10.88;2.92;;;24.60;74.50;;;;;;5097071;28;20024;-88
2021/06/22 04:20:04;;;;;;;6.43;2.80;;;24.70;74.10;;;;;;5096524;28;20103;-88
2021/06/22 04:22:30;;;;;;;9.45;3.10;;;24.90;73.50;;;;;;5095141;28;20427;-90
2021/06/22 04:24:56;;;;;;;7.80;2.83;;;25.00;73.10;;;;;;5095520;28;20034;-88
2021/06/22 04:27:22;;;;;;;6.85;2.30;;;25.00;72.10;;;;;;5095521;28;20110;-88
2021/06/22 04:29:48;;;;;;;7.82;2.38;;;25.00;72.10;;;;;;5095630;28;20052;-90
2021/06/22 04:32:14;;;;;;;8.90;2.25;;;25.10;71.90;;;;;;5095523;28;20020;-88
2021/06/22 04:34:40;;;;;;;5.93;2.33;;;25.10;71.60;;;;;;5095601;28;20030;-88
2021/06/22 04:37:06;;;;;;;12.73;2.95;;;25.10;71.20;;;;;;5095876;28;20126;-88
2021/06/22 04:39:31;;;;;;;10.40;2.83;;;25.10;70.70;;;;;;5096040;28;20081;-89
2021/06/22 04:41:57;;;;;;;7.55;3.08;;;24.90;70.50;;;;;;5095106;28;20039;-89
2021/06/22 04:44:23;;;;;;;12.00;3.15;;;24.80;70.20;;;;;;5095617;28;20032;-89
2021/06/22 04:46:49;;;;;;;10.07;3.25;;;24.70;70.20;;;;;;5095205;28;20035;-87
2021/06/22 04:49:15;;;;;;;7.55;2.65;;;24.60;70.10;;;;;;5097454;28;20028;-87
2021/06/22 04:51:40;;;;;;;12.30;3.08;;;24.50;70.50;;;;;;5109011;28;20023;-88
2021/06/22 04:54:08;;;;;;;9.57;2.92;;;24.40;70.70;;;;;;5107805;28;20035;-88
2021/06/22 04:56:34;;;;;;;11.50;3.85;;;24.50;70.90;;;;;;5112794;28;20474;-88
2021/06/22 04:59:00;;;;;;;16.80;3.90;;;24.40;70.50;;;;;;5096989;28;20032;-89
2021/06/22 05:01:26;;;;;;;16.23;4.05;;;24.40;70.40;;;;;;5094325;28;20020;-87
2021/06/22 05:03:52;;;;;;;13.65;4.32;;;24.40;70.20;;;;;;5094777;28;20058;-88
2021/06/22 05:06:18;;;;;;;18.27;5.85;;;24.40;69.50;;;;;;5095278;28;20535;-90
2021/06/22 05:08:44;;;;;;;20.27;5.85;;;24.40;69.30;;;;;;5095919;28;20044;-89
2021/06/22 05:11:10;;;;;;;22.45;5.80;;;24.40;69.40;;;;;;5095142;28;20065;-88
2021/06/22 05:13:36;;;;;;;20.17;6.28;;;24.40;69.20;;;;;;5103425;28;20028;-87
2021/06/22 05:16:02;;;;;;;18.33;6.55;;;24.40;69.20;;;;;;5094228;28;20118;-89
2021/06/22 05:18:28;;;;;;;20.63;6.60;;;24.50;68.90;;;;;;5096715;28;20028;-89
2021/06/22 05:20:54;;;;;;;21.92;6.38;;;24.70;68.40;;;;;;5099406;28;20028;-88
2021/06/22 05:23:20;;;;;;;12.60;4.90;;;24.90;68.10;;;;;;5100097;28;20085;-89
2021/06/22 05:25:46;;;;;;;11.90;5.18;;;25.10;68.10;;;;;;5094047;28;20488;-88
2021/06/22 05:28:12;;;;;;;16.15;4.20;;;25.40;67.90;;;;;;5095187;28;20080;-88
2021/06/22 05:30:39;;;;;;;13.65;4.20;;;25.70;67.60;;;;;;5095651;28;20031;-89
2021/06/22 05:33:04;;;;;;;15.63;3.92;;;26.10;67.10;;;;;;5093726;28;20028;-87
2021/06/22 05:35:31;;;;;;;13.85;3.80;;;26.50;65.90;;;;;;5098567;28;20024;-88
2021/06/22 05:37:57;;;;;;;10.70;2.97;;;26.80;64.60;;;;;;5108867;28;20016;-88
2021/06/22 05:40:23;;;;;;;16.80;3.10;;;27.10;64.50;;;;;;5111048;28;20028;-88
2021/06/22 05:42:49;;;;;;;15.52;3.35;;;27.40;63.40;;;;;;5097615;28;20047;-91
2021/06/22 05:45:15;;;;;;;16.35;3.80;;;27.60;62.00;;;;;;5094663;28;20047;-89
2021/06/22 05:47:41;;;;;;;19.83;3.67;;;27.80;62.00;;;;;;5093251;28;20047;-88
2021/06/22 05:50:08;;;;;;;15.45;3.67;;;28.00;61.40;;;;;;5094883;28;20496;-90
2021/06/22 05:52:34;;;;;;;23.10;3.30;;;28.20;60.50;;;;;;5096115;28;20036;-90
2021/06/22 05:55:00;;;;;;;20.77;3.95;;;28.40;61.00;;;;;;5095455;28;20020;-90
2021/06/22 05:57:25;;;;;;;29.70;4.55;;;28.40;59.30;;;;;;5097440;28;20476;-88
2021/06/22 05:59:51;;;;;;;25.63;4.22;;;28.50;58.90;;;;;;5097074;28;20016;-89
2021/06/22 06:02:17;;;;;;;23.88;3.90;;;28.60;58.60;;;;;;5095643;28;20028;-89
2021/06/22 06:04:43;;;;;;;18.17;4.30;;;28.80;58.50;;;;;;5094004;28;20086;-89
2021/06/22 06:07:09;;;;;;;21.48;4.07;;;28.80;57.70;;;;;;5094570;28;20024;-89
2021/06/22 06:09:35;;;;;;;24.17;4.00;;;28.90;57.70;;;;;;5095664;28;20031;-89
2021/06/22 06:12:05;;;;;;;21.58;3.67;;;29.00;57.90;;;;;;5095587;28;20029;-89
2021/06/22 06:14:31;;;;;;;16.83;4.22;;;29.10;57.70;;;;;;5097570;28;20016;-89
2021/06/22 06:16:57;;;;;;;32.63;4.35;;;29.20;57.40;;;;;;5094867;28;20035;-88
2021/06/22 06:19:22;;;;;;;19.25;4.20;;;29.30;57.50;;;;;;5101805;28;20021;-87
2021/06/22 06:21:49;;;;;;;18.90;4.38;;;29.50;57.50;;;;;;5113598;28;20028;-90
2021/06/22 06:24:14;;;;;;;22.80;4.43;;;29.70;57.40;;;;;;5111345;28;20033;-88
2021/06/22 06:31:57;;;;;;;21.10;4.32;;;30.10;56.10;;;;;;5095962;28;20571;-89
2021/06/22 06:34:23;;;;;;;33.95;4.57;;;30.10;55.80;;;;;;5094686;28;20107;-89
2021/06/22 06:36:48;;;;;;;20.88;3.60;;;30.00;55.60;;;;;;5092880;28;20016;-89
2021/06/22 06:39:14;;;;;;;17.92;3.95;;;30.20;56.30;;;;;;5092800;28;20038;-90
2021/06/22 06:41:40;;;;;;;26.15;4.97;;;30.40;55.30;;;;;;5094168;28;20069;-89
2021/06/22 06:44:06;;;;;;;30.77;4.85;;;30.40;54.60;;;;;;5094787;28;20040;-88
2021/06/22 06:46:32;;;;;;;28.75;4.78;;;30.50;54.80;;;;;;5093628;28;20027;-89
2021/06/22 06:48:58;;;;;;;33.70;5.47;;;30.50;54.20;;;;;;5092999;28;20024;-89
2021/06/22 06:51:23;;;;;;;30.90;5.18;;;30.40;54.00;;;;;;5095564;28;20039;-89
2021/06/22 06:53:50;;;;;;;26.30;4.63;;;30.40;53.80;;;;;;5092091;28;20027;-90
2021/06/22 06:56:16;;;;;;;28.02;4.88;;;30.50;54.40;;;;;;5092397;28;20431;-89
2021/06/22 06:58:41;;;;;;;40.90;5.50;;;30.60;54.30;;;;;;5092362;28;20036;-89
2021/06/22 07:01:07;;;;;;;33.95;5.40;;;30.60;53.40;;;;;;5092501;28;20031;-90
2021/06/22 07:03:33;;;;;;;34.53;6.05;;;30.60;53.50;;;;;;5092412;28;20067;-88
2021/06/22 07:06:00;;;;;;;31.55;5.97;;;30.70;52.90;;;;;;5093833;28;20026;-89
2021/06/22 07:08:36;;;;;;;43.50;6.07;;;30.60;52.70;;;;;;5093987;28;20036;-89
2021/06/22 07:11:02;;;;;;;33.97;5.65;;;30.60;52.40;;;;;;5091095;28;20039;-88
2021/06/22 07:13:28;;;;;;;22.42;5.10;;;30.80;52.90;;;;;;5095270;28;20016;-91
2021/06/22 07:15:54;;;;;;;43.65;6.35;;;31.20;53.00;;;;;;5113580;28;20424;-89
2021/06/22 07:18:22;;;;;;;35.63;6.38;;;31.30;51.60;;;;;;5109081;28;20063;-90
2021/06/22 07:20:49;;;;;;;42.30;7.68;;;31.30;51.50;;;;;;5098439;28;20031;-90
2021/06/22 07:23:20;;;;;;;32.95;6.18;;;31.30;50.90;;;;;;5094235;28;20321;-90
2021/06/22 07:25:45;;;;;;;45.15;6.43;;;31.20;51.20;;;;;;5096592;28;20036;-89
2021/06/22 07:28:11;;;;;;;34.35;6.32;;;31.30;51.00;;;;;;5096055;28;20038;-90
2021/06/22 07:30:37;;;;;;;41.60;7.22;;;31.50;51.00;;;;;;5097675;28;20028;-89
2021/06/22 07:33:03;;;;;;;44.88;7.75;;;31.60;49.90;;;;;;5096251;28;20433;-90
2021/06/22 07:35:32;;;;;;;53.30;7.70;;;31.60;49.50;;;;;;5094889;28;20114;-89
2021/06/22 07:37:58;;;;;;;39.88;6.75;;;31.60;48.80;;;;;;5100106;28;20016;-89
2021/06/22 07:40:24;;;;;;;43.20;6.80;;;31.50;48.90;;;;;;5095733;28;20062;-88
2021/06/22 07:42:51;;;;;;;37.10;6.40;;;31.60;49.10;;;;;;5095223;28;20059;-89
2021/06/22 07:45:27;;;;;;;35.00;6.53;;;31.80;49.80;;;;;;5095952;28;20024;-88
2021/06/22 07:47:54;;;;;;;50.10;7.60;;;32.00;49.50;;;;;;5095163;28;20035;-88
2021/06/22 07:50:21;;;;;;;42.20;7.65;;;32.10;48.80;;;;;;5096794;28;20036;-87
2021/06/22 07:52:49;;;;;;;44.60;6.70;;;32.10;48.90;;;;;;5100844;28;20034;-88
2021/06/22 07:55:17;;;;;;;39.30;6.63;;;32.30;49.10;;;;;;5096733;28;20489;-89
2021/06/22 07:57:54;;;;;;;37.67;7.00;;;32.60;48.50;;;;;;5094807;28;20028;-90
2021/06/22 08:03:08;;;;;;;41.53;7.85;;;32.60;48.10;;;;;;5109906;28;20043;-89
2021/06/22 08:05:34;;;;;;;34.58;7.30;;;32.80;48.60;;;;;;5115752;28;20051;-89
2021/06/22 08:08:00;;;;;;;37.42;7.80;;;33.10;49.00;;;;;;5111433;28;20111;-89
2021/06/22 08:10:26;;;;;;;52.05;8.10;;;33.20;47.60;;;;;;5096794;28;20047;-91
2021/06/22 08:12:54;;;;;;;43.22;7.05;;;33.30;47.90;;;;;;5096765;28;20032;-89
2021/06/22 08:15:21;;;;;;;37.60;6.43;;;33.50;48.20;;;;;;5098172;28;20427;-89
2021/06/22 08:17:46;;;;;;;43.30;7.05;;;33.80;47.70;;;;;;5096970;28;20035;-90
2021/06/22 08:20:14;;;;;;;49.25;7.65;;;33.90;47.00;;;;;;5096468;28;20027;-91
2021/06/22 08:22:39;;;;;;;39.95;7.35;;;34.00;46.80;;;;;;5114212;28;20042;-89
2021/06/22 08:25:09;;;;;;;54.13;8.00;;;33.90;47.00;;;;;;5116454;28;20424;-89
2021/06/22 08:27:35;;;;;;;39.40;7.15;;;34.00;46.90;;;;;;5107956;28;20384;-89
2021/06/22 08:30:02;;;;;;;44.50;7.18;;;34.00;47.10;;;;;;5097944;28;20028;-89
2021/06/22 08:32:28;;;;;;;49.60;7.22;;;34.10;47.20;;;;;;5096723;28;20028;-91
2021/06/22 08:34:56;;;;;;;43.55;6.72;;;34.10;47.70;;;;;;5095723;28;20040;-88
2021/06/22 08:37:22;;;;;;;47.08;7.22;;;34.10;47.90;;;;;;5096458;28;20120;-90
2021/06/22 08:39:47;;;;;;;48.90;7.53;;;34.30;47.70;;;;;;5096182;28;20052;-90
2021/06/22 08:42:16;;;;;;;43.40;7.40;;;34.50;47.40;;;;;;5096312;28;20036;-89
2021/06/22 08:44:45;;;;;;;41.40;7.60;;;34.70;47.40;;;;;;5097002;28;20052;-90
2021/06/22 08:47:13;;;;;;;34.90;7.05;;;34.90;47.50;;;;;;5098304;28;20024;-91
2021/06/22 08:49:40;;;;;;;42.90;7.90;;;35.10;46.50;;;;;;5095831;28;20028;-90
2021/06/22 08:52:08;;;;;;;39.35;7.25;;;35.30;46.00;;;;;;5096163;28;20024;-89
2021/06/22 08:54:34;;;;;;;46.03;7.65;;;35.40;45.50;;;;;;5094936;28;20404;-90
2021/06/22 08:57:16;;;;;;;43.63;7.75;;;35.20;45.60;;;;;;5093342;28;20027;-91
2021/06/22 08:59:42;;;;;;;41.80;7.53;;;35.50;46.10;;;;;;5095834;28;20031;-88
2021/06/22 09:02:08;;;;;;;40.00;7.60;;;35.70;46.20;;;;;;5094722;28;20032;-90
2021/06/22 09:04:42;;;;;;;39.40;7.20;;;36.00;46.00;;;;;;5093393;28;20055;-91
2021/06/22 09:07:07;;;;;;;45.97;7.85;;;36.20;45.60;;;;;;5094004;28;20103;-90
2021/06/22 09:09:38;;;;;;;42.10;7.75;;;36.40;45.40;;;;;;5095847;28;20169;-90
2021/06/22 09:12:05;;;;;;;38.78;7.55;;;36.70;45.50;;;;;;5100093;28;20020;-89
2021/06/22 09:14:41;;;;;;;55.20;8.52;;;36.90;44.40;;;;;;5100759;28;20135;-90
2021/06/22 09:17:08;;;;;;;45.08;8.23;;;36.60;44.50;;;;;;5096363;28;20019;-89
2021/06/22 09:19:35;;;;;;;49.70;9.02;;;36.60;44.30;;;;;;5095799;28;20020;-90
2021/06/22 09:22:18;;;;;;;40.30;7.95;;;36.60;44.40;;;;;;5094632;28;20032;-87
2021/06/22 09:25:11;;;;;;;42.83;8.68;;;36.60;43.50;;;;;;5096707;28;20031;-88
2021/06/22 09:27:51;;;;;;;45.67;8.17;;;36.50;43.70;;;;;;5100204;28;20036;-89
2021/06/22 09:30:40;;;;;;;50.15;8.70;;;36.70;44.60;;;;;;5104622;28;20269;-89
2021/06/22 09:33:16;;;;;;;43.35;7.85;;;36.90;43.50;;;;;;5116019;28;20004;-87
2021/06/22 09:35:44;;;;;;;42.75;7.32;;;36.80;44.70;;;;;;5118068;28;20043;-89
2021/06/22 09:38:10;;;;;;;44.08;8.38;;;36.90;44.70;;;;;;5117138;28;20028;-88
2021/06/22 09:40:35;;;;;;;49.25;9.27;;;37.30;44.30;;;;;;5112522;28;20072;-89
2021/06/22 09:43:01;;;;;;;47.72;9.05;;;37.40;43.50;;;;;;5105988;28;20044;-89
2021/06/22 09:45:29;;;;;;;40.58;8.82;;;37.00;43.50;;;;;;5103191;28;20027;-89
2021/06/22 09:47:59;;;;;;;44.53;8.90;;;36.80;43.90;;;;;;5097430;28;20032;-89
2021/06/22 09:50:45;;;;;;;53.00;8.50;;;36.60;43.80;;;;;;5094110;28;20032;-88
2021/06/22 09:53:31;;;;;;;56.25;8.93;;;36.60;44.40;;;;;;5093329;28;20109;-90
2021/06/22 09:55:58;;;;;;;47.88;9.20;;;36.90;43.80;;;;;;5092834;28;20038;-90
2021/06/22 09:58:43;;;;;;;57.50;9.60;;;36.80;43.70;;;;;;5093066;28;20028;-89
2021/06/22 10:01:25;;;;;;;57.67;9.05;;;36.70;43.30;;;;;;5093433;28;20031;-89
2021/06/22 10:03:52;;;;;;;62.15;9.93;;;36.90;43.60;;;;;;5093157;28;20032;-90
2021/06/22 10:06:18;;;;;;;51.92;9.32;;;36.90;43.90;;;;;;5094542;28;20020;-89
2021/06/22 10:08:57;;;;;;;48.38;8.40;;;36.80;43.70;;;;;;5095187;28;20473;-88
2021/06/22 10:11:37;;;;;;;48.33;9.73;;;36.90;43.30;;;;;;5095257;28;20085;-88
2021/06/22 10:14:07;;;;;;;59.85;10.35;;;37.10;43.00;;;;;;5096889;28;20031;-88
2021/06/22 10:16:33;;;;;;;68.72;10.35;;;37.20;43.10;;;;;;5098362;28;20096;-88
2021/06/22 10:19:01;;;;;;;55.65;10.02;;;37.30;42.60;;;;;;5097408;28;20465;-89
2021/06/22 10:21:28;;;;;;;46.10;9.80;;;37.10;42.70;;;;;;5102767;28;20038;-90
2021/06/22 10:23:56;;;;;;;49.17;9.65;;;37.30;42.90;;;;;;5110146;28;20099;-89
2021/06/22 10:26:27;;;;;;;57.88;9.52;;;37.30;42.70;;;;;;5108043;28;20055;-90
2021/06/22 10:28:53;;;;;;;63.50;10.15;;;37.30;42.50;;;;;;5110941;28;20035;-89
2021/06/22 10:31:20;;;;;;;71.88;10.77;;;37.30;42.50;;;;;;5105026;28;20027;-87
2021/06/22 10:33:46;;;;;;;62.17;10.88;;;37.30;42.30;;;;;;5097087;28;20020;-89
2021/06/22 10:36:45;;;;;;;66.20;10.55;;;37.30;42.40;;;;;;5097591;28;20028;-89
2021/06/22 10:39:54;;;;;;;70.07;11.25;;;37.40;43.00;;;;;;5081558;28;20025;-89
2021/06/22 10:42:21;;;;;;;57.17;9.07;;;37.70;42.90;;;;;;5094291;28;20405;-89
2021/06/22 10:44:48;;;;;;;43.38;9.38;;;38.00;43.00;;;;;;5093096;28;20530;-87
2021/06/22 10:47:19;;;;;;;49.35;10.13;;;38.60;42.90;;;;;;5092145;28;20051;-89
2021/06/22 10:50:22;;;;;;;70.53;10.48;;;38.90;42.30;;;;;;5092565;28;20028;-90
2021/06/22 10:53:06;;;;;;;56.28;10.35;;;39.00;41.30;;;;;;5097857;28;20040;-89
2021/06/22 10:55:33;;;;;;;59.30;10.80;;;38.50;41.60;;;;;;5097961;28;20030;-90
2021/06/22 10:58:05;;;;;;;58.65;10.90;;;38.30;41.50;;;;;;5097153;28;20058;-89
2021/06/22 11:00:39;;;;;;;64.70;9.93;;;38.40;42.20;;;;;;5112787;28;20029;-88
2021/06/22 11:03:07;;;;;;;58.88;10.27;;;38.60;42.30;;;;;;5117857;28;20047;-88
2021/06/22 11:05:39;;;;;;;69.57;11.88;;;38.60;41.40;;;;;;5113561;28;20030;-89
2021/06/22 11:08:13;;;;;;;68.13;9.85;;;38.60;41.20;;;;;;5095953;28;20066;-89
2021/06/22 11:10:41;;;;;;;50.67;9.80;;;38.70;41.40;;;;;;5098637;28;20019;-89
2021/06/22 11:13:08;;;;;;;59.03;10.68;;;38.90;41.40;;;;;;5100012;28;20036;-90
2021/06/22 11:15:53;;;;;;;62.90;11.68;;;38.90;40.90;;;;;;5101964;28;20199;-89
2021/06/22 11:18:20;;;;;;;59.80;11.30;;;38.70;40.70;;;;;;5114392;28;20028;-88
2021/06/22 11:21:06;;;;;;;55.53;11.07;;;38.50;41.00;;;;;;5116871;28;20016;-88
2021/06/22 11:23:55;;;;;;;66.63;12.25;;;38.50;41.60;;;;;;5114409;28;20073;-89
2021/06/22 11:26:21;;;;;;;71.20;12.60;;;38.70;41.30;;;;;;5098008;28;20028;-89
2021/06/22 11:29:02;;;;;;;62.15;11.40;;;38.70;41.50;;;;;;5098542;28;20026;-88
2021/06/22 11:31:40;;;;;;;66.20;11.90;;;38.80;41.10;;;;;;5095416;28;20016;-89
2021/06/22 11:34:17;;;;;;;67.45;13.00;;;38.60;41.20;;;;;;5096916;28;20430;-90
2021/06/22 11:36:58;;;;;;;77.22;13.45;;;38.50;40.60;;;;;;5095689;28;20035;-89
2021/06/22 11:39:28;;;;;;;75.97;12.18;;;38.10;40.40;;;;;;5094568;28;20028;-89
2021/06/22 11:42:12;;;;;;;80.63;13.77;;;37.90;40.70;;;;;;5097367;28;20025;-89
2021/06/22 11:44:39;;;;;;;82.05;13.05;;;37.80;40.90;;;;;;5097352;28;20032;-88
2021/06/22 11:47:12;;;;;;;63.63;12.60;;;37.90;41.10;;;;;;5094730;28;20524;-89
2021/06/22 11:49:45;;;;;;;;;;;38.10;41.00;;;;;;5094914;28;20400;-89
2021/06/22 11:52:20;;;;;;;75.17;13.03;;;38.40;41.30;;;;;;5096134;28;19969;-89
2021/06/22 11:57:35;;;;;;;72.45;11.90;;;39.00;40.10;;;;;;5097393;28;20040;-91
2021/06/22 12:00:15;;;;;;;76.68;13.20;;;39.00;39.90;;;;;;5096060;28;20043;-90
2021/06/22 12:02:54;;;;;;;69.65;11.73;;;39.00;39.70;;;;;;5095533;28;20044;-89
2021/06/22 12:05:23;;;;;;;77.65;13.15;;;39.30;39.70;;;;;;5097636;28;20081;-90
2021/06/22 12:07:54;;;;;;;75.40;12.77;;;39.30;38.80;;;;;;5095584;28;20068;-92
2021/06/22 12:10:24;;;;;;;74.05;12.13;;;38.90;39.40;;;;;;5096951;28;20024;-90
2021/06/22 12:12:51;;;;;;;65.60;11.20;;;38.60;39.60;;;;;;5096370;28;20024;-90
2021/06/22 12:15:38;;;;;;;73.68;12.82;;;38.70;39.50;;;;;;5097227;28;20491;-90
2021/06/22 12:18:04;;;;;;;82.25;14.50;;;38.70;39.30;;;;;;5095209;28;20028;-90
2021/06/22 12:20:32;;;;;;;80.82;11.95;;;38.60;39.20;;;;;;5096592;28;20048;-88
2021/06/22 12:23:12;;;;;;;80.85;13.52;;;38.70;39.30;;;;;;5095308;28;20047;-90
2021/06/22 12:25:44;;;;;;;73.40;11.98;;;38.60;38.90;;;;;;5096159;28;20054;-86
2021/06/22 12:28:10;;;;;;;86.40;14.23;;;38.60;39.10;;;;;;5096618;28;20039;-91
2021/06/22 12:30:41;;;;;;;79.93;12.05;;;38.60;39.00;;;;;;5097250;28;20031;-90
2021/06/22 12:33:19;;;;;;;72.55;12.10;;;38.60;38.90;;;;;;5095305;28;20028;-90
2021/06/22 12:35:49;;;;;;;75.32;12.88;;;38.60;38.90;;;;;;5100193;28;20096;-88
2021/06/22 12:38:17;;;;;;;63.10;11.65;;;38.70;39.00;;;;;;5106181;28;20039;-88
2021/06/22 12:40:56;;;;;;;85.07;13.73;;;38.90;39.20;;;;;;5115053;28;19996;-88
2021/06/22 12:43:40;;;;;;;89.35;13.15;;;39.10;38.90;;;;;;5115877;28;20070;-89
2021/06/22 12:46:06;;;;;;;64.47;11.57;;;38.80;38.80;;;;;;5100002;28;20040;-90
2021/06/22 12:48:32;;;;;;;80.72;13.10;;;38.70;39.40;;;;;;5094022;28;20027;-90
2021/06/22 12:50:58;;;;;;;71.18;11.38;;;38.50;39.40;;;;;;5092281;28;20028;-90
2021/06/22 12:53:24;;;;;;;68.95;11.80;;;38.30;39.60;;;;;;5094195;28;20056;-90
2021/06/22 12:55:55;;;;;;;79.22;12.60;;;38.60;40.00;;;;;;5093665;28;20055;-90